This is the latest recevied weather packets stored in our database for station/object HS1AXC-1. If no packets are shown the sender has not sent any weather packets the latest 10 day(s).
| Time | Temp. | Humidity | Pressure | Rain* | Wind** | Luminosity | Snow |
|---|---|---|---|---|---|---|---|
| 1777289835 | 35.56° C | 57% | 1006 hPa | - | - | 0 W/m² | - |
| 1777289213 | 36.11° C | 54% | 1006 hPa | - | - | 0 W/m² | - |
| 1777288591 | 36.11° C | 53% | 1006 hPa | - | - | 0 W/m² | - |
| 1777287969 | 36.11° C | 51% | 1006 hPa | - | - | 0 W/m² | - |
| 1777287347 | 36.11° C | 52% | 1006 hPa | - | - | 0 W/m² | - |
| 1777286725 | 37.22° C | 51% | 1006 hPa | - | - | 0 W/m² | - |
| 1777286103 | 36.67° C | 52% | 1006 hPa | - | - | 0 W/m² | - |
| 1777285481 | 36.67° C | 52% | 1006 hPa | - | - | 0 W/m² | - |
| 1777284859 | 37.78° C | 52% | 1006 hPa | - | - | 0 W/m² | - |
| 1777284237 | 37.78° C | 52% | 1005 hPa | - | - | 0 W/m² | - |
| 1777283615 | 37.78° C | 53% | 1005 hPa | - | - | 0 W/m² | - |
| 1777282993 | 37.22° C | 53% | 1006 hPa | - | - | 0 W/m² | - |
| 1777282606 | 37.78° C | 51% | 1005 hPa | - | - | 0 W/m² | - |
| 1777281984 | 37.78° C | 51% | 1006 hPa | - | - | 1 W/m² | - |
| 1777281179 | 38.89° C | 48% | 1006 hPa | - | - | 1 W/m² | - |
| 1777280557 | 38.33° C | 47% | 1005 hPa | - | - | 1 W/m² | - |
| 1777279934 | 38.89° C | 46% | 1005 hPa | - | - | 1 W/m² | - |
| 1777279312 | 38.33° C | 47% | 1005 hPa | - | - | 1 W/m² | - |
| 1777278690 | 38.89° C | 46% | 1005 hPa | - | - | 1 W/m² | - |
| 1777278068 | 38.89° C | 45% | 1006 hPa | - | - | 1 W/m² | - |
| 1777277446 | 38.89° C | 45% | 1006 hPa | - | - | 1 W/m² | - |
| 1777276824 | 39.44° C | 45% | 1006 hPa | - | - | 1 W/m² | - |
| 1777276202 | 39.44° C | 45% | 1006 hPa | - | - | 1 W/m² | - |
| 1777275580 | 40° C | 46% | 1006 hPa | - | - | 2 W/m² | - |
| 1777274958 | 38.89° C | 48% | 1006 hPa | - | - | 2 W/m² | - |
* Rain since midnight (hover to see other rain measurements)
** Current wind speed in m/s (hover to see current wind gust speed)